EDTL

Lahr Airport

Germany
METAR EDTL 190720Z 34005KT CAVOK 21/13 Q1017
Observed Flight Rules
Jul-19 @ 07:20 UTC (14 minutes ago) Visual Flight Rules
Wind Visibility Clouds
340° at 5 knots 10,000+ meters
  • Clear skies
Temperatures Readings
Current 21°C / 70°F
Dewpoint 13°C / 55°F
Humidity 60%
Altimeter 30.03" Hg
Pressure 1017 hPa
Elevation 156
METAR EDTL 190720Z 34005KT CAVOK 21/13 Q1017
Observed Flight Rules
Jul-19 @ 07:20 UTC
(14 minutes ago)
VFR
Wind Visibility
340° at 5 knots 10,000+ meters
Clouds
  • Clear skies
Temperature Dewpoint
21°C / 70°F 13°C / 55°F
Humidity Altimeter Pressure
60% 30.03" Hg 1017 hPa